sensor_id;sensor_type;location;lat;lon;timestamp;temperature;humidity
48836;DHT22;62581;47.342;7.908;2022-12-18T00:01:33;1.40;99.90
48836;DHT22;62581;47.342;7.908;2022-12-18T00:04:07;1.30;99.90
48836;DHT22;62581;47.342;7.908;2022-12-18T00:06:35;1.40;99.90
48836;DHT22;62581;47.342;7.908;2022-12-18T00:09:03;1.40;99.90
48836;DHT22;62581;47.342;7.908;2022-12-18T00:11:31;1.30;99.90
48836;DHT22;62581;47.342;7.908;2022-12-18T00:13:59;1.30;99.90
48836;DHT22;62581;47.342;7.908;2022-12-18T00:16:27;1.30;99.90
48836;DHT22;62581;47.342;7.908;2022-12-18T00:18:59;1.30;99.90
48836;DHT22;62581;47.342;7.908;2022-12-18T00:21:27;1.30;99.90
48836;DHT22;62581;47.342;7.908;2022-12-18T00:23:55;1.30;99.90
48836;DHT22;62581;47.342;7.908;2022-12-18T00:26:23;1.20;99.90
48836;DHT22;62581;47.342;7.908;2022-12-18T00:28:51;1.20;99.90
48836;DHT22;62581;47.342;7.908;2022-12-18T00:31:20;1.20;99.90
48836;DHT22;62581;47.342;7.908;2022-12-18T00:33:47;1.20;99.90
48836;DHT22;62581;47.342;7.908;2022-12-18T00:36:17;1.20;99.90
48836;DHT22;62581;47.342;7.908;2022-12-18T00:38:45;1.20;99.90
48836;DHT22;62581;47.342;7.908;2022-12-18T00:41:14;1.10;99.90
48836;DHT22;62581;47.342;7.908;2022-12-18T00:44:02;1.10;99.90
48836;DHT22;62581;47.342;7.908;2022-12-18T00:46:28;1.10;99.90
48836;DHT22;62581;47.342;7.908;2022-12-18T00:48:55;1.10;99.90
48836;DHT22;62581;47.342;7.908;2022-12-18T00:51:23;1.10;99.90
48836;DHT22;62581;47.342;7.908;2022-12-18T00:53:51;1.10;99.90
48836;DHT22;62581;47.342;7.908;2022-12-18T00:56:21;1.10;99.90
48836;DHT22;62581;47.342;7.908;2022-12-18T00:58:48;1.20;99.90
48836;DHT22;62581;47.342;7.908;2022-12-18T01:01:15;1.20;99.90
48836;DHT22;62581;47.342;7.908;2022-12-18T01:03:43;1.20;99.90
48836;DHT22;62581;47.342;7.908;2022-12-18T01:06:12;1.30;99.90
48836;DHT22;62581;47.342;7.908;2022-12-18T01:08:40;1.30;99.90
48836;DHT22;62581;47.342;7.908;2022-12-18T01:11:09;1.30;99.90
48836;DHT22;62581;47.342;7.908;2022-12-18T01:13:36;1.30;99.90
48836;DHT22;62581;47.342;7.908;2022-12-18T01:16:03;1.40;99.90
48836;DHT22;62581;47.342;7.908;2022-12-18T01:18:30;1.30;99.90
48836;DHT22;62581;47.342;7.908;2022-12-18T01:20:57;1.30;99.90
48836;DHT22;62581;47.342;7.908;2022-12-18T01:23:24;1.30;99.90
48836;DHT22;62581;47.342;7.908;2022-12-18T01:25:55;1.20;99.90
48836;DHT22;62581;47.342;7.908;2022-12-18T01:28:22;1.30;99.90
48836;DHT22;62581;47.342;7.908;2022-12-18T01:30:49;1.20;99.90
48836;DHT22;62581;47.342;7.908;2022-12-18T01:33:16;1.40;99.90
48836;DHT22;62581;47.342;7.908;2022-12-18T01:35:43;1.50;99.90
48836;DHT22;62581;47.342;7.908;2022-12-18T01:38:10;1.40;99.90
48836;DHT22;62581;47.342;7.908;2022-12-18T01:40:37;1.40;99.90
48836;DHT22;62581;47.342;7.908;2022-12-18T01:43:05;1.40;99.90
48836;DHT22;62581;47.342;7.908;2022-12-18T01:45:32;1.30;99.90
48836;DHT22;62581;47.342;7.908;2022-12-18T01:48:01;1.30;99.90
48836;DHT22;62581;47.342;7.908;2022-12-18T01:50:31;1.30;99.90
48836;DHT22;62581;47.342;7.908;2022-12-18T01:53:03;1.40;99.90
48836;DHT22;62581;47.342;7.908;2022-12-18T01:55:38;1.30;99.90
48836;DHT22;62581;47.342;7.908;2022-12-18T01:58:10;1.30;99.90
48836;DHT22;62581;47.342;7.908;2022-12-18T02:00:37;1.30;99.90
48836;DHT22;62581;47.342;7.908;2022-12-18T02:03:04;1.30;99.90
48836;DHT22;62581;47.342;7.908;2022-12-18T02:05:42;1.30;99.90
48836;DHT22;62581;47.342;7.908;2022-12-18T02:08:13;1.40;99.90
48836;DHT22;62581;47.342;7.908;2022-12-18T02:10:47;1.40;99.90
48836;DHT22;62581;47.342;7.908;2022-12-18T02:13:20;1.30;99.90
48836;DHT22;62581;47.342;7.908;2022-12-18T02:16:00;1.30;99.90
48836;DHT22;62581;47.342;7.908;2022-12-18T02:18:32;1.40;99.90
48836;DHT22;62581;47.342;7.908;2022-12-18T02:21:08;1.40;99.90
48836;DHT22;62581;47.342;7.908;2022-12-18T02:23:49;1.40;99.90
48836;DHT22;62581;47.342;7.908;2022-12-18T02:26:21;1.40;99.90
48836;DHT22;62581;47.342;7.908;2022-12-18T02:28:53;1.40;99.90
48836;DHT22;62581;47.342;7.908;2022-12-18T02:31:25;1.40;99.90
48836;DHT22;62581;47.342;7.908;2022-12-18T02:33:54;1.30;99.90
48836;DHT22;62581;47.342;7.908;2022-12-18T02:36:22;1.40;99.90
48836;DHT22;62581;47.342;7.908;2022-12-18T02:38:51;1.30;99.90
48836;DHT22;62581;47.342;7.908;2022-12-18T02:41:23;1.20;99.90
48836;DHT22;62581;47.342;7.908;2022-12-18T02:43:55;1.30;99.90
48836;DHT22;62581;47.342;7.908;2022-12-18T02:46:34;1.20;99.90
48836;DHT22;62581;47.342;7.908;2022-12-18T02:49:17;1.30;99.90
48836;DHT22;62581;47.342;7.908;2022-12-18T02:51:52;1.30;99.90
48836;DHT22;62581;47.342;7.908;2022-12-18T02:54:41;1.30;99.90
48836;DHT22;62581;47.342;7.908;2022-12-18T02:57:18;1.30;99.90
48836;DHT22;62581;47.342;7.908;2022-12-18T02:59:53;1.20;99.90
48836;DHT22;62581;47.342;7.908;2022-12-18T03:02:26;1.30;99.90
48836;DHT22;62581;47.342;7.908;2022-12-18T03:05:02;1.30;99.90
48836;DHT22;62581;47.342;7.908;2022-12-18T03:07:35;1.20;99.90
48836;DHT22;62581;47.342;7.908;2022-12-18T03:10:06;1.20;99.90
48836;DHT22;62581;47.342;7.908;2022-12-18T03:12:39;1.20;99.90
48836;DHT22;62581;47.342;7.908;2022-12-18T03:15:09;1.20;99.90
48836;DHT22;62581;47.342;7.908;2022-12-18T03:17:42;1.20;99.90
48836;DHT22;62581;47.342;7.908;2022-12-18T03:20:20;1.20;99.90
48836;DHT22;62581;47.342;7.908;2022-12-18T03:22:51;1.20;99.90
48836;DHT22;62581;47.342;7.908;2022-12-18T03:25:20;1.30;99.90
48836;DHT22;62581;47.342;7.908;2022-12-18T03:27:51;1.30;99.90
48836;DHT22;62581;47.342;7.908;2022-12-18T03:30:21;1.20;99.90
48836;DHT22;62581;47.342;7.908;2022-12-18T03:32:50;1.20;99.90
48836;DHT22;62581;47.342;7.908;2022-12-18T03:35:22;1.10;99.90
48836;DHT22;62581;47.342;7.908;2022-12-18T03:37:51;1.10;99.90
48836;DHT22;62581;47.342;7.908;2022-12-18T03:40:19;1.10;99.90
48836;DHT22;62581;47.342;7.908;2022-12-18T03:42:51;1.10;99.90
48836;DHT22;62581;47.342;7.908;2022-12-18T03:45:22;1.10;99.90
48836;DHT22;62581;47.342;7.908;2022-12-18T03:48:01;1.20;99.90
48836;DHT22;62581;47.342;7.908;2022-12-18T03:50:36;1.10;99.90
48836;DHT22;62581;47.342;7.908;2022-12-18T03:53:12;1.10;99.90
48836;DHT22;62581;47.342;7.908;2022-12-18T03:55:41;1.10;99.90
48836;DHT22;62581;47.342;7.908;2022-12-18T03:58:13;1.10;99.90
48836;DHT22;62581;47.342;7.908;2022-12-18T04:00:43;1.00;99.90
48836;DHT22;62581;47.342;7.908;2022-12-18T04:03:11;1.00;99.90
48836;DHT22;62581;47.342;7.908;2022-12-18T04:05:39;1.00;99.90
48836;DHT22;62581;47.342;7.908;2022-12-18T04:08:07;1.00;99.90
48836;DHT22;62581;47.342;7.908;2022-12-18T04:10:34;0.90;99.90
48836;DHT22;62581;47.342;7.908;2022-12-18T04:13:02;0.90;99.90
48836;DHT22;62581;47.342;7.908;2022-12-18T04:15:32;0.80;99.90
48836;DHT22;62581;47.342;7.908;2022-12-18T04:18:01;0.90;99.90
48836;DHT22;62581;47.342;7.908;2022-12-18T04:20:29;0.80;99.90
48836;DHT22;62581;47.342;7.908;2022-12-18T04:22:57;0.90;99.90
48836;DHT22;62581;47.342;7.908;2022-12-18T04:25:24;0.90;99.90
48836;DHT22;62581;47.342;7.908;2022-12-18T04:27:51;0.90;99.90
48836;DHT22;62581;47.342;7.908;2022-12-18T04:30:18;0.90;99.90
48836;DHT22;62581;47.342;7.908;2022-12-18T04:32:46;1.00;99.90
48836;DHT22;62581;47.342;7.908;2022-12-18T04:35:13;1.00;99.90
48836;DHT22;62581;47.342;7.908;2022-12-18T04:37:40;1.00;99.90
48836;DHT22;62581;47.342;7.908;2022-12-18T04:40:08;1.00;99.90
48836;DHT22;62581;47.342;7.908;2022-12-18T04:42:35;0.90;99.90
48836;DHT22;62581;47.342;7.908;2022-12-18T04:45:02;0.90;99.90
48836;DHT22;62581;47.342;7.908;2022-12-18T04:47:29;0.90;99.90
48836;DHT22;62581;47.342;7.908;2022-12-18T04:49:58;0.90;99.90
48836;DHT22;62581;47.342;7.908;2022-12-18T04:52:26;1.00;99.90
48836;DHT22;62581;47.342;7.908;2022-12-18T04:54:53;1.00;99.90
48836;DHT22;62581;47.342;7.908;2022-12-18T04:57:20;1.10;99.90
48836;DHT22;62581;47.342;7.908;2022-12-18T04:59:47;1.10;99.90
48836;DHT22;62581;47.342;7.908;2022-12-18T05:02:14;1.10;99.90
48836;DHT22;62581;47.342;7.908;2022-12-18T05:04:41;1.10;99.90
48836;DHT22;62581;47.342;7.908;2022-12-18T05:07:09;1.10;99.90
48836;DHT22;62581;47.342;7.908;2022-12-18T05:09:36;1.00;99.90
48836;DHT22;62581;47.342;7.908;2022-12-18T05:12:03;1.00;99.90
48836;DHT22;62581;47.342;7.908;2022-12-18T05:14:30;1.00;99.90
48836;DHT22;62581;47.342;7.908;2022-12-18T05:16:57;0.90;99.90
48836;DHT22;62581;47.342;7.908;2022-12-18T05:19:24;1.00;99.90
48836;DHT22;62581;47.342;7.908;2022-12-18T05:21:51;1.00;99.90
48836;DHT22;62581;47.342;7.908;2022-12-18T05:24:19;1.00;99.90
48836;DHT22;62581;47.342;7.908;2022-12-18T05:26:46;1.10;99.90
48836;DHT22;62581;47.342;7.908;2022-12-18T05:29:13;1.00;99.90
48836;DHT22;62581;47.342;7.908;2022-12-18T05:31:40;1.10;99.90
48836;DHT22;62581;47.342;7.908;2022-12-18T05:34:07;1.10;99.90
48836;DHT22;62581;47.342;7.908;2022-12-18T05:36:34;1.10;99.90
48836;DHT22;62581;47.342;7.908;2022-12-18T05:39:01;1.00;99.90
48836;DHT22;62581;47.342;7.908;2022-12-18T05:41:29;1.10;99.90
48836;DHT22;62581;47.342;7.908;2022-12-18T05:43:56;1.10;99.90
48836;DHT22;62581;47.342;7.908;2022-12-18T05:46:23;1.10;99.90
48836;DHT22;62581;47.342;7.908;2022-12-18T05:48:51;1.10;99.90
48836;DHT22;62581;47.342;7.908;2022-12-18T05:51:19;1.10;99.90
48836;DHT22;62581;47.342;7.908;2022-12-18T05:53:47;1.10;99.90
48836;DHT22;62581;47.342;7.908;2022-12-18T05:56:16;1.10;99.90
48836;DHT22;62581;47.342;7.908;2022-12-18T05:58:46;1.20;99.90
48836;DHT22;62581;47.342;7.908;2022-12-18T06:01:15;1.20;99.90
48836;DHT22;62581;47.342;7.908;2022-12-18T06:03:42;1.20;99.90
48836;DHT22;62581;47.342;7.908;2022-12-18T06:06:14;1.20;99.90
48836;DHT22;62581;47.342;7.908;2022-12-18T06:08:41;1.10;99.90
48836;DHT22;62581;47.342;7.908;2022-12-18T06:11:08;1.10;99.90
48836;DHT22;62581;47.342;7.908;2022-12-18T06:13:36;1.10;99.90
48836;DHT22;62581;47.342;7.908;2022-12-18T06:16:05;1.10;99.90
48836;DHT22;62581;47.342;7.908;2022-12-18T06:18:32;1.00;99.90
48836;DHT22;62581;47.342;7.908;2022-12-18T06:20:59;1.10;99.90
48836;DHT22;62581;47.342;7.908;2022-12-18T06:23:27;1.10;99.90
48836;DHT22;62581;47.342;7.908;2022-12-18T06:25:54;1.10;99.90
48836;DHT22;62581;47.342;7.908;2022-12-18T06:28:21;1.20;99.90
48836;DHT22;62581;47.342;7.908;2022-12-18T06:30:49;1.20;99.90
48836;DHT22;62581;47.342;7.908;2022-12-18T06:33:17;1.20;99.90
48836;DHT22;62581;47.342;7.908;2022-12-18T06:35:44;1.20;99.90
48836;DHT22;62581;47.342;7.908;2022-12-18T06:38:11;1.30;99.90
48836;DHT22;62581;47.342;7.908;2022-12-18T06:40:38;1.30;99.90
48836;DHT22;62581;47.342;7.908;2022-12-18T06:43:06;1.30;99.90
48836;DHT22;62581;47.342;7.908;2022-12-18T06:45:33;1.30;99.90
48836;DHT22;62581;47.342;7.908;2022-12-18T06:48:00;1.30;99.90
48836;DHT22;62581;47.342;7.908;2022-12-18T06:50:28;1.30;99.90
48836;DHT22;62581;47.342;7.908;2022-12-18T06:52:55;1.40;99.90
48836;DHT22;62581;47.342;7.908;2022-12-18T06:55:22;1.30;99.90
48836;DHT22;62581;47.342;7.908;2022-12-18T06:57:49;1.30;99.90
48836;DHT22;62581;47.342;7.908;2022-12-18T07:00:16;1.40;99.90
48836;DHT22;62581;47.342;7.908;2022-12-18T07:02:43;1.40;99.90
48836;DHT22;62581;47.342;7.908;2022-12-18T07:05:10;1.40;99.90
48836;DHT22;62581;47.342;7.908;2022-12-18T07:07:39;1.50;99.90
48836;DHT22;62581;47.342;7.908;2022-12-18T07:10:06;1.50;99.90
48836;DHT22;62581;47.342;7.908;2022-12-18T07:12:33;1.50;99.90
48836;DHT22;62581;47.342;7.908;2022-12-18T07:15:00;1.50;99.90
48836;DHT22;62581;47.342;7.908;2022-12-18T07:17:27;1.50;99.90
48836;DHT22;62581;47.342;7.908;2022-12-18T07:19:55;1.40;99.90
48836;DHT22;62581;47.342;7.908;2022-12-18T07:22:22;1.50;99.90
48836;DHT22;62581;47.342;7.908;2022-12-18T07:24:50;1.50;99.90
48836;DHT22;62581;47.342;7.908;2022-12-18T07:27:17;1.50;99.90
48836;DHT22;62581;47.342;7.908;2022-12-18T07:29:44;1.50;99.90
48836;DHT22;62581;47.342;7.908;2022-12-18T07:32:11;1.50;99.90
48836;DHT22;62581;47.342;7.908;2022-12-18T07:34:38;1.60;99.90
48836;DHT22;62581;47.342;7.908;2022-12-18T07:37:05;1.60;99.90
48836;DHT22;62581;47.342;7.908;2022-12-18T07:39:32;1.50;99.90
48836;DHT22;62581;47.342;7.908;2022-12-18T07:42:00;1.60;99.90
48836;DHT22;62581;47.342;7.908;2022-12-18T07:44:46;1.60;99.90
48836;DHT22;62581;47.342;7.908;2022-12-18T07:47:13;1.60;99.90
48836;DHT22;62581;47.342;7.908;2022-12-18T07:49:40;1.60;99.90
48836;DHT22;62581;47.342;7.908;2022-12-18T07:52:07;1.70;99.90
48836;DHT22;62581;47.342;7.908;2022-12-18T07:54:35;1.70;99.90
48836;DHT22;62581;47.342;7.908;2022-12-18T07:57:03;1.70;99.90
48836;DHT22;62581;47.342;7.908;2022-12-18T07:59:30;1.60;99.90
48836;DHT22;62581;47.342;7.908;2022-12-18T08:01:57;1.60;99.90
48836;DHT22;62581;47.342;7.908;2022-12-18T08:04:24;1.60;99.90
48836;DHT22;62581;47.342;7.908;2022-12-18T08:06:51;1.60;99.90
48836;DHT22;62581;47.342;7.908;2022-12-18T08:09:18;1.60;99.90
48836;DHT22;62581;47.342;7.908;2022-12-18T08:11:45;1.70;99.90
48836;DHT22;62581;47.342;7.908;2022-12-18T08:14:13;1.60;99.90
48836;DHT22;62581;47.342;7.908;2022-12-18T08:16:41;1.70;99.90
48836;DHT22;62581;47.342;7.908;2022-12-18T08:19:11;1.70;99.90
48836;DHT22;62581;47.342;7.908;2022-12-18T08:21:41;1.80;99.90
48836;DHT22;62581;47.342;7.908;2022-12-18T08:24:09;1.80;99.90
48836;DHT22;62581;47.342;7.908;2022-12-18T08:26:36;1.80;99.90
48836;DHT22;62581;47.342;7.908;2022-12-18T08:29:03;1.70;99.90
48836;DHT22;62581;47.342;7.908;2022-12-18T08:31:31;1.70;99.90
48836;DHT22;62581;47.342;7.908;2022-12-18T08:33:58;1.70;99.90
48836;DHT22;62581;47.342;7.908;2022-12-18T08:36:25;1.80;99.90
48836;DHT22;62581;47.342;7.908;2022-12-18T08:38:53;1.80;99.90
48836;DHT22;62581;47.342;7.908;2022-12-18T08:41:20;1.80;99.90
48836;DHT22;62581;47.342;7.908;2022-12-18T08:43:47;1.90;99.90
48836;DHT22;62581;47.342;7.908;2022-12-18T08:46:35;1.90;99.90
48836;DHT22;62581;47.342;7.908;2022-12-18T08:49:03;1.90;99.90
48836;DHT22;62581;47.342;7.908;2022-12-18T08:51:30;1.90;99.90
48836;DHT22;62581;47.342;7.908;2022-12-18T08:53:57;1.90;99.90
48836;DHT22;62581;47.342;7.908;2022-12-18T08:56:25;1.90;99.90
48836;DHT22;62581;47.342;7.908;2022-12-18T08:58:52;2.00;99.90
48836;DHT22;62581;47.342;7.908;2022-12-18T09:01:20;2.00;99.90
48836;DHT22;62581;47.342;7.908;2022-12-18T09:03:49;2.00;99.90
48836;DHT22;62581;47.342;7.908;2022-12-18T09:06:17;2.10;99.90
48836;DHT22;62581;47.342;7.908;2022-12-18T09:08:45;2.10;99.90
48836;DHT22;62581;47.342;7.908;2022-12-18T09:11:15;2.10;99.90
48836;DHT22;62581;47.342;7.908;2022-12-18T09:13:45;2.10;99.90
48836;DHT22;62581;47.342;7.908;2022-12-18T09:16:12;2.10;99.90
48836;DHT22;62581;47.342;7.908;2022-12-18T09:18:39;2.10;99.90
48836;DHT22;62581;47.342;7.908;2022-12-18T09:21:13;2.10;99.90
48836;DHT22;62581;47.342;7.908;2022-12-18T09:23:40;2.10;99.90
48836;DHT22;62581;47.342;7.908;2022-12-18T09:26:08;2.00;99.90
48836;DHT22;62581;47.342;7.908;2022-12-18T09:28:35;2.10;99.90
48836;DHT22;62581;47.342;7.908;2022-12-18T09:31:05;2.10;99.90
48836;DHT22;62581;47.342;7.908;2022-12-18T09:33:33;2.00;99.90
48836;DHT22;62581;47.342;7.908;2022-12-18T09:36:01;2.00;99.90
48836;DHT22;62581;47.342;7.908;2022-12-18T09:38:30;2.00;99.90
48836;DHT22;62581;47.342;7.908;2022-12-18T09:41:00;2.00;99.90
48836;DHT22;62581;47.342;7.908;2022-12-18T09:43:33;2.10;99.90
48836;DHT22;62581;47.342;7.908;2022-12-18T09:46:06;2.10;99.90
48836;DHT22;62581;47.342;7.908;2022-12-18T09:48:35;2.20;99.90
48836;DHT22;62581;47.342;7.908;2022-12-18T09:51:11;2.30;99.90
48836;DHT22;62581;47.342;7.908;2022-12-18T09:53:45;2.40;99.90
48836;DHT22;62581;47.342;7.908;2022-12-18T09:56:18;2.50;99.90
48836;DHT22;62581;47.342;7.908;2022-12-18T09:58:53;2.60;99.90
48836;DHT22;62581;47.342;7.908;2022-12-18T10:01:22;2.60;99.90
48836;DHT22;62581;47.342;7.908;2022-12-18T10:03:50;2.60;99.90
48836;DHT22;62581;47.342;7.908;2022-12-18T10:06:22;2.70;99.90
48836;DHT22;62581;47.342;7.908;2022-12-18T10:08:58;2.70;99.90
48836;DHT22;62581;47.342;7.908;2022-12-18T10:11:38;2.70;99.90
48836;DHT22;62581;47.342;7.908;2022-12-18T10:14:12;2.80;99.90
48836;DHT22;62581;47.342;7.908;2022-12-18T10:16:48;2.80;99.90
48836;DHT22;62581;47.342;7.908;2022-12-18T10:19:25;2.80;99.90
48836;DHT22;62581;47.342;7.908;2022-12-18T10:22:00;2.80;99.90
48836;DHT22;62581;47.342;7.908;2022-12-18T10:24:39;2.70;99.90
48836;DHT22;62581;47.342;7.908;2022-12-18T10:27:13;2.70;99.90
48836;DHT22;62581;47.342;7.908;2022-12-18T10:29:42;2.80;99.90
48836;DHT22;62581;47.342;7.908;2022-12-18T10:32:14;2.80;99.90
48836;DHT22;62581;47.342;7.908;2022-12-18T10:34:45;2.90;99.90
48836;DHT22;62581;47.342;7.908;2022-12-18T10:37:15;2.90;99.90
48836;DHT22;62581;47.342;7.908;2022-12-18T10:39:44;2.90;99.90
48836;DHT22;62581;47.342;7.908;2022-12-18T10:42:15;2.90;99.90
48836;DHT22;62581;47.342;7.908;2022-12-18T10:44:43;3.00;99.90
48836;DHT22;62581;47.342;7.908;2022-12-18T10:47:13;3.00;99.90
48836;DHT22;62581;47.342;7.908;2022-12-18T10:49:47;3.00;99.90
48836;DHT22;62581;47.342;7.908;2022-12-18T10:52:18;3.00;99.90
48836;DHT22;62581;47.342;7.908;2022-12-18T10:54:51;3.10;99.90
48836;DHT22;62581;47.342;7.908;2022-12-18T10:57:32;3.20;99.90
48836;DHT22;62581;47.342;7.908;2022-12-18T11:00:19;3.20;99.90
48836;DHT22;62581;47.342;7.908;2022-12-18T11:02:47;3.30;99.90
48836;DHT22;62581;47.342;7.908;2022-12-18T11:05:29;3.30;99.90
48836;DHT22;62581;47.342;7.908;2022-12-18T11:07:57;3.30;99.90
48836;DHT22;62581;47.342;7.908;2022-12-18T11:10:30;3.30;99.90
48836;DHT22;62581;47.342;7.908;2022-12-18T11:13:10;3.30;99.90
48836;DHT22;62581;47.342;7.908;2022-12-18T11:15:40;3.40;99.90
48836;DHT22;62581;47.342;7.908;2022-12-18T11:18:16;3.40;99.90
48836;DHT22;62581;47.342;7.908;2022-12-18T11:20:50;3.40;99.90
48836;DHT22;62581;47.342;7.908;2022-12-18T11:23:19;3.30;99.90
48836;DHT22;62581;47.342;7.908;2022-12-18T11:25:53;3.30;99.90
48836;DHT22;62581;47.342;7.908;2022-12-18T11:28:38;3.40;99.90
48836;DHT22;62581;47.342;7.908;2022-12-18T11:31:16;3.40;99.90
48836;DHT22;62581;47.342;7.908;2022-12-18T11:33:46;3.40;99.90
48836;DHT22;62581;47.342;7.908;2022-12-18T11:36:15;3.40;99.90
48836;DHT22;62581;47.342;7.908;2022-12-18T11:38:43;3.40;99.90
48836;DHT22;62581;47.342;7.908;2022-12-18T11:41:18;3.40;99.90
48836;DHT22;62581;47.342;7.908;2022-12-18T11:43:52;3.30;99.90
48836;DHT22;62581;47.342;7.908;2022-12-18T11:46:26;3.40;99.90
48836;DHT22;62581;47.342;7.908;2022-12-18T11:49:01;3.40;99.90
48836;DHT22;62581;47.342;7.908;2022-12-18T11:51:35;3.40;99.90
48836;DHT22;62581;47.342;7.908;2022-12-18T11:54:10;3.50;99.90
48836;DHT22;62581;47.342;7.908;2022-12-18T11:56:43;3.50;99.90
48836;DHT22;62581;47.342;7.908;2022-12-18T11:59:18;3.50;99.90
48836;DHT22;62581;47.342;7.908;2022-12-18T12:01:50;3.50;99.90
48836;DHT22;62581;47.342;7.908;2022-12-18T12:04:45;3.50;99.90
48836;DHT22;62581;47.342;7.908;2022-12-18T12:07:33;3.50;99.90
48836;DHT22;62581;47.342;7.908;2022-12-18T12:10:13;3.50;99.90
48836;DHT22;62581;47.342;7.908;2022-12-18T12:12:56;3.40;99.90
48836;DHT22;62581;47.342;7.908;2022-12-18T12:15:32;3.50;99.90
48836;DHT22;62581;47.342;7.908;2022-12-18T12:18:08;3.50;99.90
48836;DHT22;62581;47.342;7.908;2022-12-18T12:20:47;3.50;99.90
48836;DHT22;62581;47.342;7.908;2022-12-18T12:23:22;3.50;99.90
48836;DHT22;62581;47.342;7.908;2022-12-18T12:25:59;3.60;99.90
48836;DHT22;62581;47.342;7.908;2022-12-18T12:28:41;3.60;99.90
48836;DHT22;62581;47.342;7.908;2022-12-18T12:31:23;3.60;99.90
48836;DHT22;62581;47.342;7.908;2022-12-18T12:34:11;3.70;99.90
48836;DHT22;62581;47.342;7.908;2022-12-18T12:36:48;3.70;99.90
48836;DHT22;62581;47.342;7.908;2022-12-18T12:39:22;3.70;99.90
48836;DHT22;62581;47.342;7.908;2022-12-18T12:41:50;3.70;99.90
48836;DHT22;62581;47.342;7.908;2022-12-18T12:44:41;3.70;99.90
48836;DHT22;62581;47.342;7.908;2022-12-18T12:47:13;3.70;99.90
48836;DHT22;62581;47.342;7.908;2022-12-18T12:49:41;3.80;99.90
48836;DHT22;62581;47.342;7.908;2022-12-18T12:52:16;3.80;99.90
48836;DHT22;62581;47.342;7.908;2022-12-18T12:54:45;3.80;99.90
48836;DHT22;62581;47.342;7.908;2022-12-18T12:57:17;3.80;99.90
48836;DHT22;62581;47.342;7.908;2022-12-18T12:59:52;3.80;99.90
48836;DHT22;62581;47.342;7.908;2022-12-18T13:02:28;3.90;99.90
48836;DHT22;62581;47.342;7.908;2022-12-18T13:05:00;3.90;99.90
48836;DHT22;62581;47.342;7.908;2022-12-18T13:07:35;3.80;99.90
48836;DHT22;62581;47.342;7.908;2022-12-18T13:10:14;3.80;99.90
48836;DHT22;62581;47.342;7.908;2022-12-18T13:12:52;3.80;99.90
48836;DHT22;62581;47.342;7.908;2022-12-18T13:15:25;3.80;99.90
48836;DHT22;62581;47.342;7.908;2022-12-18T13:18:16;3.80;99.90
48836;DHT22;62581;47.342;7.908;2022-12-18T13:20:46;3.80;99.90
48836;DHT22;62581;47.342;7.908;2022-12-18T13:23:34;3.70;99.90
48836;DHT22;62581;47.342;7.908;2022-12-18T13:26:32;3.70;99.90
48836;DHT22;62581;47.342;7.908;2022-12-18T13:29:00;3.70;99.90
48836;DHT22;62581;47.342;7.908;2022-12-18T13:34:36;3.70;99.90
48836;DHT22;62581;47.342;7.908;2022-12-18T13:37:43;3.70;99.90
48836;DHT22;62581;47.342;7.908;2022-12-18T13:43:36;3.70;99.90
48836;DHT22;62581;47.342;7.908;2022-12-18T13:46:16;3.80;99.90
48836;DHT22;62581;47.342;7.908;2022-12-18T13:48:51;3.80;99.90
48836;DHT22;62581;47.342;7.908;2022-12-18T13:51:20;3.70;99.90
48836;DHT22;62581;47.342;7.908;2022-12-18T13:53:50;3.70;99.90
48836;DHT22;62581;47.342;7.908;2022-12-18T13:56:18;3.70;99.90
48836;DHT22;62581;47.342;7.908;2022-12-18T13:59:03;3.70;99.90
48836;DHT22;62581;47.342;7.908;2022-12-18T14:01:32;3.60;99.90
48836;DHT22;62581;47.342;7.908;2022-12-18T14:04:18;3.60;99.90
48836;DHT22;62581;47.342;7.908;2022-12-18T14:06:47;3.60;99.90
48836;DHT22;62581;47.342;7.908;2022-12-18T14:09:23;3.60;99.90
48836;DHT22;62581;47.342;7.908;2022-12-18T14:11:52;3.50;99.90
48836;DHT22;62581;47.342;7.908;2022-12-18T14:14:42;3.50;99.90
48836;DHT22;62581;47.342;7.908;2022-12-18T14:17:11;3.50;99.90
48836;DHT22;62581;47.342;7.908;2022-12-18T14:19:42;3.50;99.90
48836;DHT22;62581;47.342;7.908;2022-12-18T14:22:17;3.50;99.90
48836;DHT22;62581;47.342;7.908;2022-12-18T14:24:44;3.50;99.90
48836;DHT22;62581;47.342;7.908;2022-12-18T14:27:20;3.50;99.90
48836;DHT22;62581;47.342;7.908;2022-12-18T14:29:48;3.50;99.90
48836;DHT22;62581;47.342;7.908;2022-12-18T14:32:17;3.50;99.90
48836;DHT22;62581;47.342;7.908;2022-12-18T14:34:45;3.50;99.90
48836;DHT22;62581;47.342;7.908;2022-12-18T14:37:15;3.50;99.90
48836;DHT22;62581;47.342;7.908;2022-12-18T14:39:56;3.50;99.90
48836;DHT22;62581;47.342;7.908;2022-12-18T14:42:24;3.40;99.90
48836;DHT22;62581;47.342;7.908;2022-12-18T14:47:54;3.40;99.90
48836;DHT22;62581;47.342;7.908;2022-12-18T14:50:21;3.30;99.90
48836;DHT22;62581;47.342;7.908;2022-12-18T14:52:50;3.20;99.90
48836;DHT22;62581;47.342;7.908;2022-12-18T14:55:17;3.20;99.90
48836;DHT22;62581;47.342;7.908;2022-12-18T14:57:45;3.10;99.90
48836;DHT22;62581;47.342;7.908;2022-12-18T15:00:17;3.00;99.90
48836;DHT22;62581;47.342;7.908;2022-12-18T15:02:46;3.00;99.90
48836;DHT22;62581;47.342;7.908;2022-12-18T15:05:18;2.90;99.90
48836;DHT22;62581;47.342;7.908;2022-12-18T15:07:47;2.90;99.90
48836;DHT22;62581;47.342;7.908;2022-12-18T15:10:17;2.90;99.90
48836;DHT22;62581;47.342;7.908;2022-12-18T15:12:47;2.80;99.90
48836;DHT22;62581;47.342;7.908;2022-12-18T15:15:46;2.70;99.90
48836;DHT22;62581;47.342;7.908;2022-12-18T15:18:13;2.70;99.90
48836;DHT22;62581;47.342;7.908;2022-12-18T15:20:44;2.70;99.90
48836;DHT22;62581;47.342;7.908;2022-12-18T15:23:17;2.60;99.90
48836;DHT22;62581;47.342;7.908;2022-12-18T15:25:46;2.60;99.90
48836;DHT22;62581;47.342;7.908;2022-12-18T15:28:19;2.60;99.90
48836;DHT22;62581;47.342;7.908;2022-12-18T15:30:59;2.60;99.90
48836;DHT22;62581;47.342;7.908;2022-12-18T15:33:30;2.60;99.90
48836;DHT22;62581;47.342;7.908;2022-12-18T15:35:58;2.50;99.90
48836;DHT22;62581;47.342;7.908;2022-12-18T15:38:26;2.50;99.90
48836;DHT22;62581;47.342;7.908;2022-12-18T15:40:55;2.40;99.90
48836;DHT22;62581;47.342;7.908;2022-12-18T15:43:23;2.30;99.90
48836;DHT22;62581;47.342;7.908;2022-12-18T15:46:03;2.30;99.90
48836;DHT22;62581;47.342;7.908;2022-12-18T15:48:32;2.30;99.90
48836;DHT22;62581;47.342;7.908;2022-12-18T15:51:00;2.20;99.90
48836;DHT22;62581;47.342;7.908;2022-12-18T15:53:30;2.20;99.90
48836;DHT22;62581;47.342;7.908;2022-12-18T15:55:59;2.10;99.90
48836;DHT22;62581;47.342;7.908;2022-12-18T15:58:44;2.20;99.90
48836;DHT22;62581;47.342;7.908;2022-12-18T16:01:11;2.10;99.90
48836;DHT22;62581;47.342;7.908;2022-12-18T16:03:38;2.10;99.90
48836;DHT22;62581;47.342;7.908;2022-12-18T16:06:06;2.10;99.90
48836;DHT22;62581;47.342;7.908;2022-12-18T16:08:33;2.10;99.90
48836;DHT22;62581;47.342;7.908;2022-12-18T16:11:02;2.10;99.90
48836;DHT22;62581;47.342;7.908;2022-12-18T16:13:29;2.00;99.90
48836;DHT22;62581;47.342;7.908;2022-12-18T16:15:56;2.00;99.90
48836;DHT22;62581;47.342;7.908;2022-12-18T16:18:23;2.00;99.90